Steptoe Valley WMA, Nevada Weather observations

Data are for 10 minute period ending at time listed.
 Day   Time   Solar   Ave.   Ave.  Ave.  Vector  Max.   Baro.   Total    
  of    of     Rad.   Air    Rel.  Wind   Wind   Wind  Press.  Precip.   
Year   Day            Temp.  Hum.  Speed  Dir.   Gust                    
2014   (PST)  Kw/m2    F      %     mph   deg.    mph    mb.     in.     
-------------------------------------------------------------------------
 105    3:00   0.00   28.2    53    3.4   172     5.0   803.6    0.00 
 105    3:10   0.00   26.9    55    3.5   161     5.4   803.6    0.00 
 105    3:20   0.00   26.3    54    4.0   159     5.6   803.5    0.00 
 105    3:30   0.00   26.6    50    4.5   155     5.8   803.3    0.00 
 105    3:40   0.00   26.3    50    3.8   158     5.5   803.3    0.00 
 105    3:50   0.00   27.3    52    3.5   162     5.1   803.2    0.00 
 105    4:00   0.00   27.7    51    3.2   166     5.7   803.3    0.00 
 105    4:10   0.00   28.1    53    4.1   169     6.2   803.2    0.00 
 105    4:20   0.00   28.7    50    2.7   161     4.6   803.1    0.00 
 105    4:30   0.00   29.7    45    3.7   161     5.9   803.2    0.00 
 105    4:40   0.00   30.8    43    3.5   168     5.3   803.2    0.00 
 105    4:50   0.00   30.0    48    4.0   167     5.6   803.2    0.00 
 105    5:00   0.00   31.2    43    4.1   178     5.4   803.2    0.00 
 105    5:10   0.00   30.6    41    3.6   162     5.9   803.2    0.00 
 105    5:20   0.01   31.2    42    2.0   167     3.4   803.2    0.00 
 105    5:30   0.02   30.3    49    1.4   154     3.1   803.2    0.00 
 105    5:40   0.04   31.7    43    4.1   137     6.6   803.2    0.00 
 105    5:50   0.05   32.7    42    2.9   161     4.7   803.1    0.00 
 105    6:00   0.07   32.7    40    3.1   156     5.4   803.1    0.00 
 105    6:10   0.10   34.1    45    3.5   176     6.7   803.1    0.00 
 105    6:20   0.12   36.1    43    2.0   190     4.0   803.1    0.00 
 105    6:30   0.12   37.5    37    1.7   221     4.7   803.2    0.00 
 105    6:40   0.12   39.4    32    3.2   171     4.3   803.2    0.00 
 105    6:50   0.13   40.6    29    2.4   135     3.5   803.2    0.00 
 105    7:00   0.16   41.6    28    2.4   118     3.5   803.1    0.00 
 105    7:10   0.19   43.0    27    2.4   130     3.3   803.0    0.00 
 105    7:20   0.23   45.0    27    2.0   181     5.3   802.9    0.00 
 105    7:30   0.30   47.0    23    2.8   210     4.4   802.8    0.00 
 105    7:40   0.37   48.9    22    1.9   183     3.7   802.7    0.00 
 105    7:50   0.43   51.0    20    1.4   204     3.7   802.6    0.00 
 105    8:00   0.48   53.2    17    2.0   198     4.2   802.5    0.00 
 105    8:10   0.52   54.2    16    2.2   178     5.2   802.3    0.00 
 105    8:20   0.58   55.2    16    1.4    70     4.7   802.2    0.00 
 105    8:30   0.62   55.5    16    3.2   354     6.1   802.2    0.00 
 105    8:40   0.65   55.2    16    2.4   357     5.8   802.0    0.00 
 105    8:50   0.62   55.9    14    2.3    48     6.4   801.9    0.00 
 105    9:00   0.66   56.6    14    2.6    17     6.1   801.8    0.00 
 105    9:10   0.75   57.3    13    3.8   309     9.3   801.7    0.00 
 105    9:20   0.74   57.1    13    2.2   336     7.2   801.6    0.00 
 105    9:30   0.78   58.2    13    3.8   334     8.5   801.6    0.00 
 105    9:40   0.83   58.7    13    3.6   339    10.0   801.5    0.00 
 105    9:50   0.85   58.9    13    4.8    33    13.7   801.3    0.00 
 105   10:00   0.87   59.7    13    4.2   309    13.4   801.3    0.00 
 105   10:10   0.88   60.4    14    7.5   339    20.3   801.1    0.00 
 105   10:20   0.90   61.3    14   10.1   300    23.8   801.0    0.00 
 105   10:30   0.91   62.4    13    8.0   286    19.3   801.0    0.00 
 105   10:40   0.92   61.4    13    8.9   299    18.6   800.9    0.00 
 105   10:50   0.96   61.6    13   10.5   290    19.5   800.8    0.00 
 105   11:00   0.95   62.0    13    7.0   286    16.4   800.6    0.00 
 105   11:10   0.94   62.3    13    8.8   324    19.6   800.5    0.00 
 105   11:20   0.95   62.2    13    6.0   269    14.8   800.3    0.00 
 105   11:30   0.95   62.8    13    9.5   283    17.4   800.2    0.00 
 105   11:40   0.97   63.1    13    7.5   235    13.1   800.1    0.00 
 105   11:50   0.80   62.5    13   10.3   316    20.0   800.0    0.00 
 105   12:00   0.72   62.6    12    6.5   277    14.1   799.8    0.00 
 105   12:10   0.57   61.5    12    4.2   254    10.8   799.7    0.00 
 105   12:20   0.62   61.1    12    4.3   338     7.7   799.6    0.00 
 105   12:30   0.70   63.3    12    7.2   265    16.4   799.4    0.00 
 105   12:40   0.84   65.4    12   13.3   329    21.8   799.2    0.00 
 105   12:50   0.96   66.0    12   14.4   323    22.1   799.2    0.00 
 105   13:00   1.05   66.9    12   13.8   332    22.6   799.0    0.00 
 105   13:10   1.02   66.9    11    8.9   280    23.8   799.1    0.00 
 105   13:20   1.02   67.8    11   13.3   275    21.1   799.0    0.00 
 105   13:30   1.09   68.6    11    8.5   253    18.3   799.0    0.00 
 105   13:40   0.75   67.1    11   11.9   276    18.7   798.8    0.00 
 105   13:50   0.74   66.6    11   14.5   309    21.9   798.6    0.00 
 105   14:00   0.55   66.3    12   14.2   294    22.1   798.5    0.00 
 105   14:10   0.51   65.3    12   13.2   317    21.0   798.3    0.00 
 105   14:20   0.44   65.0    13   12.7   308    20.8   798.1    0.00 
 105   14:30   0.30   63.1    13   16.3   315    26.7   798.0    0.00 
 105   14:40   0.35   63.4    14   13.1   311    19.7   798.0    0.00 
 105   14:50   0.57   64.5    13   14.1   319    22.9   797.9    0.00 
 105   15:00   0.68   66.1    12   17.2   324    27.3   797.8    0.00 
 105   15:10   0.61   66.3    12   16.5   322    26.8   797.8    0.00 
 105   15:20   0.38   64.3    12   15.7   306    23.5   797.9    0.00 
 105   15:30   0.41   64.7    12   15.2   318    21.7   797.9    0.00 
 105   15:40   0.28   63.5    13   14.1   321    22.5   797.8    0.00 
 105   15:50   0.20   62.2    13   14.7   324    21.5   797.8    0.00 
 105   16:00   0.17   61.8    13   12.4   324    18.9   797.7    0.00 
 105   16:10   0.15   61.3    13   13.1   332    19.6   797.7    0.00 
 105   16:20   0.16   60.9    14   12.4   332    18.1   797.7    0.00 
 105   16:30   0.16   60.6    14   13.9   334    20.8   797.7    0.00 
 105   16:40   0.20   60.5    14   17.2   331    24.1   797.7    0.00 
 105   16:50   0.23   60.6    14   16.8   333    25.5   797.8    0.00 
 105   17:00   0.19   60.2    15   13.4   338    19.4   797.7    0.00 
 105   17:10   0.17   59.8    15   15.6   340    24.3   797.7    0.00 
 105   17:20   0.13   58.7    17   14.9   334    24.3   797.6    0.00 
 105   17:30   0.10   57.7    18   13.6   333    21.0   797.7    0.00 
 105   17:40   0.07   56.9    19   15.0   335    20.7   797.7    0.00 
 105   17:50   0.05   55.9    21   13.2   337    18.8   797.7    0.00 
 105   18:00   0.03   54.7    22   11.3   335    16.4   797.8    0.00 
 105   18:10   0.02   53.3    23    8.4   337    13.7   797.9    0.00 
 105   18:20   0.01   52.5    24    9.1   341    17.4   797.9    0.00 
 105   18:30   0.00   50.3    26    5.2   355     7.8   798.0    0.00 
 105   18:40   0.00   48.7    29    6.2   346     9.1   798.1    0.00 
 105   18:50   0.00   47.5    31    6.8   356     8.9   798.3    0.00 
 105   19:00   0.00   46.6    31    4.5   359     6.4   798.4    0.00 
 105   19:10   0.00   44.1    32    1.3     7     3.2   798.5    0.00 
 105   19:20   0.00   43.3    41    0.8   172     1.7   798.6    0.00 
 105   19:30   0.00   41.8    38    1.5   168     5.8   798.7    0.00 
 105   19:40   0.00   40.2    40    2.5   167     4.5   798.9    0.00 
 105   19:50   0.00   41.3    38    1.8   156     2.8   799.0    0.00 
 105   20:00   0.00   41.7    38    1.8   160     3.0   799.2    0.00 
 105   20:10   0.00   43.2    34    1.5   161     3.3   799.3    0.00 
 105   20:20   0.00   44.7    33    3.2    35     7.7   799.3    0.00 
 105   20:30   0.00   44.4    32    5.4    78     7.8   799.4    0.00 
 105   20:40   0.00   45.8    32    4.8    48     6.6   799.4    0.00 
 105   20:50   0.00   44.7    33    1.4    33     4.7   799.5    0.00 
 105   21:00   0.00   43.1    34    0.8     5     2.9   799.6    0.00 
 105   21:10   0.00   40.6    42    1.2   170     2.4   799.6    0.00 
 105   21:20   0.00   39.8    44    1.1     2     2.3   799.5    0.00 
 105   21:30   0.00   38.5    43    1.1   352     2.3   799.5    0.00 
 105   21:40   0.00   38.7    43    2.0    23     4.1   799.5    0.00 
 105   21:50   0.00   39.1    41    3.1    57     5.3   799.5    0.00 
 105   22:00   0.00   39.5    41    3.0    52     5.6   799.6    0.00 
 105   22:10   0.00   37.9    48    0.3   123     1.8   799.7    0.00 
 105   22:20   0.00   37.4    46    1.7    44     4.3   799.7    0.00 
 105   22:30   0.00   37.8    44    0.5    27     1.8   799.8    0.00 
 105   22:40   0.00   35.7    51    1.7   180     3.3   799.9    0.00 
 105   22:50   0.00   35.2    50    1.6   133     3.1   800.0    0.00 
 105   23:00   0.00   31.5    59    2.2   172     3.8   800.0    0.00 
 105   23:10   0.00   33.3    52    4.1   102     5.5   800.0    0.00 
 105   23:20   0.00   32.8    49    3.2   111     5.8   800.0    0.00 
 105   23:30   0.00   31.2    57    1.4   176     2.7   800.1    0.00 
 105   23:40   0.00   31.5    53    5.9   100     8.8   800.1    0.00 
 105   23:50   0.00   32.3    52    5.3    98     8.0   800.1    0.00 
 106    0:00   0.00   32.2    52    5.7    96     8.9   800.0    0.00 
 106    0:10   0.00   32.8    53    7.4    86     9.0   799.8    0.00 
 106    0:20   0.00   34.1    51    5.1    83     7.7   799.6    0.00 
 106    0:30   0.00   32.4    57    1.5   169     4.6   799.7    0.00 
 106    0:40   0.00   32.8    57    2.4   156     7.7   799.6    0.00 
 106    0:50   0.00   28.9    64    3.0   179     5.3   799.6    0.00 
 106    1:00   0.00   27.1    72    1.6   190     3.3   799.6    0.00 
 106    1:10   0.00   25.4    73    3.1   161     4.2   799.5    0.00 
 106    1:20   0.00   28.7    68    1.6   158     2.6   799.4    0.00 
 106    1:30   0.00   26.8    69    0.6   167     1.8   799.4    0.00 
 106    1:40   0.00   26.9    68    0.0     0     0.0   799.5    0.00 
 106    1:50   0.00   26.7    73    0.5   232     1.3   799.6    0.00 
 106    2:00   0.00   27.1    78    0.8   180     1.7   799.7    0.00 
 106    2:10   0.00   26.8    73    2.2   156     3.0   799.7    0.00 
 106    2:20   0.00   28.7    68    2.1   153     2.8   799.7    0.00 
 106    2:30   0.00   30.3    63    1.4   159     2.4   799.7    0.00 
 106    2:40   0.00   32.8    58    4.4    94     6.5   799.6    0.00 
 106    2:50   0.00   35.3    53    6.0    67     6.6   799.6    0.00 

Return to Steptoe Valley WMA graphs page.


Western Regional Climate Center,wrcc@dri.edu